Time;durP1;ratioP1;P1;durP2;ratioP2;P2;SDS_P1;SDS_P2;PMS_P1;PMS_P2;Temp;Humidity;BMP_temperature;BMP_pressure;BME280_temperature;BME280_humidity;BME280_pressure;Samples;Min_cycle;Max_cycle;Signal;HPM_P1;HPM_P2
2022/12/01 00:01:19;;;;;;;;;;;;;;;4.78;100.00;102688.72;6276740;22;19958;-79
2022/12/01 00:03:44;;;;;;;;;;;;;;;4.77;100.00;102684.38;6275979;22;19938;-80
2022/12/01 00:06:16;;;;;;;;;;;;;;;4.78;100.00;102688.72;6275782;22;19918;-79
2022/12/01 00:10:24;;;;;;;;;;;;;;;4.80;100.00;102691.34;6275774;22;19918;-80
2022/12/01 00:11:31;;;;;;;;;;;;;;;4.79;100.00;102687.88;6276645;22;20230;-79
2022/12/01 00:13:56;;;;;;;;;;;;;;;4.80;100.00;102687.06;6276093;22;19990;-79
2022/12/01 00:16:21;;;;;;;;;;;;;;;4.81;100.00;102687.97;6275866;22;19922;-80
2022/12/01 00:18:51;;;;;;;;;;;;;;;4.82;100.00;102679.38;6276375;22;19972;-80
2022/12/01 00:21:17;;;;;;;;;;;;;;;4.80;100.00;102678.44;6277181;22;20180;-80
2022/12/01 00:23:46;;;;;;;;;;;;;;;4.79;100.00;102680.13;6276750;22;19915;-80
2022/12/01 00:26:11;;;;;;;;;;;;;;;4.80;100.00;102675.84;6277204;22;19914;-80
2022/12/01 00:28:37;;;;;;;;;;;;;;;4.79;100.00;102679.28;6276472;22;19911;-79
2022/12/01 00:31:06;;;;;;;;;;;;;;;4.79;100.00;102679.28;6275941;22;19911;-79
2022/12/01 00:33:31;;;;;;;;;;;;;;;4.79;100.00;102674.97;6276066;22;20347;-79
2022/12/01 00:35:57;;;;;;;;;;;;;;;4.81;100.00;102680.19;6276872;22;19964;-79
2022/12/01 00:38:22;;;;;;;;;;;;;;;4.81;100.00;102681.06;6276353;22;19915;-79
2022/12/01 00:40:47;;;;;;;;;;;;;;;4.80;100.00;102679.31;6275723;22;20204;-79
2022/12/01 00:43:12;;;;;;;;;;;;;;;4.82;100.00;102681.94;6276775;22;19915;-79
2022/12/01 00:45:37;;;;;;;;;;;;;;;4.82;100.00;102685.41;6276057;22;20229;-79
2022/12/01 00:48:03;;;;;;;;;;;;;;;4.82;100.00;102682.81;6276322;22;19918;-79
2022/12/01 00:50:28;;;;;;;;;;;;;;;4.82;100.00;102681.94;6276173;22;19989;-79
2022/12/01 00:52:53;;;;;;;;;;;;;;;4.82;100.00;102679.38;6275953;22;20247;-79
2022/12/01 00:55:18;;;;;;;;;;;;;;;4.80;100.00;102679.31;6275899;22;19911;-79
2022/12/01 00:57:43;;;;;;;;;;;;;;;4.80;100.00;102686.19;6276512;22;19915;-79
2022/12/01 01:00:09;;;;;;;;;;;;;;;4.80;100.00;102681.88;6274983;22;19915;-79
2022/12/01 01:02:34;;;;;;;;;;;;;;;4.80;100.00;102681.00;6276226;22;19915;-80
2022/12/01 01:04:59;;;;;;;;;;;;;;;4.79;100.00;102676.69;6274648;22;19912;-79
2022/12/01 01:07:24;;;;;;;;;;;;;;;4.79;100.00;102680.13;6276721;22;19918;-79
2022/12/01 01:09:49;;;;;;;;;;;;;;;4.79;100.00;102690.47;6275815;22;19935;-80
2022/12/01 01:12:15;;;;;;;;;;;;;;;4.80;100.00;102688.75;6275757;22;20316;-79
2022/12/01 01:14:40;;;;;;;;;;;;;;;4.81;100.00;102688.81;6276586;22;19923;-80
2022/12/01 01:17:05;;;;;;;;;;;;;;;4.78;100.00;102683.56;6276349;22;20223;-79
2022/12/01 01:19:30;;;;;;;;;;;;;;;4.78;100.00;102693.91;6274560;22;19965;-79
2022/12/01 01:21:55;;;;;;;;;;;;;;;4.78;100.00;102696.50;6275186;22;19915;-80
2022/12/01 01:24:21;;;;;;;;;;;;;;;4.80;100.00;102702.56;6276330;22;19911;-80
2022/12/01 01:26:46;;;;;;;;;;;;;;;4.79;100.00;102694.78;6276188;22;19912;-79
2022/12/01 01:29:11;;;;;;;;;;;;;;;4.78;100.00;102705.94;6274654;22;20750;-79
2022/12/01 01:31:36;;;;;;;;;;;;;;;4.78;100.00;102706.81;6275292;22;19917;-79
2022/12/01 01:34:02;;;;;;;;;;;;;;;4.80;100.00;102705.13;6275054;22;19911;-79
2022/12/01 01:36:28;;;;;;;;;;;;;;;4.78;100.00;102709.41;6276194;22;19923;-79
2022/12/01 01:38:56;;;;;;;;;;;;;;;4.78;100.00;102714.56;6275939;22;19911;-79
2022/12/01 01:41:21;;;;;;;;;;;;;;;4.79;100.00;102721.47;6275245;22;19918;-79
2022/12/01 01:44:02;;;;;;;;;;;;;;;4.79;100.00;102718.03;6259182;22;19924;-79
2022/12/01 01:46:39;;;;;;;;;;;;;;;4.79;100.00;102718.91;6245879;23;19916;-79
2022/12/01 01:49:16;;;;;;;;;;;;;;;4.78;100.00;102717.16;6244382;23;19919;-80
2022/12/01 01:51:43;;;;;;;;;;;;;;;4.79;100.00;102723.19;6246938;23;19990;-79
2022/12/01 01:54:24;;;;;;;;;;;;;;;4.78;100.00;102711.13;6246994;23;19912;-79
2022/12/01 01:57:09;;;;;;;;;;;;;;;4.78;100.00;102714.56;6247463;23;20266;-79
2022/12/01 01:59:55;;;;;;;;;;;;;;;4.79;100.00;102712.88;6247201;23;20390;-79
2022/12/01 02:02:26;;;;;;;;;;;;;;;4.79;100.00;102718.03;6225406;23;19912;-79
2022/12/01 02:05:12;;;;;;;;;;;;;;;4.77;100.00;102723.13;6246632;23;19915;-79
2022/12/01 02:07:59;;;;;;;;;;;;;;;4.78;100.00;102717.16;6247203;23;20336;-79
2022/12/01 02:10:49;;;;;;;;;;;;;;;4.78;100.00;102716.28;6245644;23;19918;-80
2022/12/01 02:13:20;;;;;;;;;;;;;;;4.77;100.00;102717.97;6246356;23;19986;-79
2022/12/01 02:15:45;;;;;;;;;;;;;;;4.76;100.00;102713.63;6246657;23;19915;-79
2022/12/01 02:18:41;;;;;;;;;;;;;;;4.77;100.00;102715.38;6246268;23;20232;-79
2022/12/01 02:21:40;;;;;;;;;;;;;;;4.77;100.00;102719.69;6246904;23;19920;-79
2022/12/01 02:24:23;;;;;;;;;;;;;;;4.75;100.00;102714.47;6246575;23;19911;-79
2022/12/01 02:26:59;;;;;;;;;;;;;;;4.74;100.00;102710.16;6246230;23;19912;-79
2022/12/01 02:29:43;;;;;;;;;;;;;;;4.75;100.00;102714.47;6246098;23;19912;-79
2022/12/01 02:32:27;;;;;;;;;;;;;;;4.74;100.00;102717.91;6245381;23;19916;-79
2022/12/01 02:34:58;;;;;;;;;;;;;;;4.75;100.00;102721.34;6246482;23;19911;-79
2022/12/01 02:37:25;;;;;;;;;;;;;;;4.74;100.00;102712.75;6245709;23;20240;-79
2022/12/01 02:40:18;;;;;;;;;;;;;;;4.74;100.00;102719.59;6245955;23;20301;-79
2022/12/01 02:42:53;;;;;;;;;;;;;;;4.75;100.00;102711.03;6246827;23;19958;-79
2022/12/01 02:45:30;;;;;;;;;;;;;;;4.74;100.00;102712.75;6201625;23;19916;-79
2022/12/01 02:48:08;;;;;;;;;;;;;;;4.78;100.00;102718.88;6215885;23;19916;-79
2022/12/01 02:50:40;;;;;;;;;;;;;;;4.79;100.00;102721.47;6215060;23;19912;-80
2022/12/01 02:53:10;;;;;;;;;;;;;;;4.76;100.00;102725.69;6216214;23;19915;-79
2022/12/01 02:55:52;;;;;;;;;;;;;;;4.75;100.00;102717.06;6215338;23;19999;-79
2022/12/01 02:58:20;;;;;;;;;;;;;;;4.75;100.00;102719.66;6215167;23;19919;-79
2022/12/01 03:01:17;;;;;;;;;;;;;;;;;;;;;
2022/12/01 03:04:01;;;;;;;;;;;;;;;4.74;100.00;102717.91;6207728;23;20010;-79
2022/12/01 03:06:45;;;;;;;;;;;;;;;4.75;100.00;102729.09;6215835;23;19912;-80
2022/12/01 03:09:11;;;;;;;;;;;;;;;4.77;100.00;102730.88;6216287;23;19912;-79
2022/12/01 03:11:58;;;;;;;;;;;;;;;4.74;100.00;102720.50;6214104;23;19987;-79
2022/12/01 03:14:46;;;;;;;;;;;;;;;4.73;100.00;102718.72;6215576;23;20328;-79
2022/12/01 03:17:35;;;;;;;;;;;;;;;4.74;100.00;102714.41;6216081;23;19991;-79
2022/12/01 03:20:24;;;;;;;;;;;;;;;4.77;100.00;102712.78;6215252;23;19912;-80
2022/12/01 03:22:58;;;;;;;;;;;;;;;4.75;100.00;102717.06;6215784;23;20232;-79
2022/12/01 03:25:32;;;;;;;;;;;;;;;4.74;100.00;102723.06;6216133;23;20364;-79
2022/12/01 03:28:17;;;;;;;;;;;;;;;4.73;100.00;102718.72;6215363;23;19958;-79
2022/12/01 03:30:45;;;;;;;;;;;;;;;4.72;100.00;102716.09;6215004;23;19912;-79
2022/12/01 03:33:17;;;;;;;;;;;;;;;4.70;100.00;102719.50;6215088;23;19912;-79
2022/12/01 03:36:03;;;;;;;;;;;;;;;4.72;100.00;102719.56;6215411;23;19919;-79
2022/12/01 03:38:38;;;;;;;;;;;;;;;4.70;100.00;102716.91;6216217;23;19912;-79
2022/12/01 03:41:19;;;;;;;;;;;;;;;4.70;100.00;102719.50;6213896;23;19919;-79
2022/12/01 03:44:21;;;;;;;;;;;;;;;4.73;100.00;102721.28;6225974;23;19915;-79
2022/12/01 03:47:07;;;;;;;;;;;;;;;4.69;100.00;102714.28;6244602;23;19915;-80
2022/12/01 03:49:51;;;;;;;;;;;;;;;4.69;100.00;102716.88;6245533;23;19919;-79
2022/12/01 03:52:44;;;;;;;;;;;;;;;4.69;100.00;102706.53;6229118;22;20305;-79
2022/12/01 03:55:28;;;;;;;;;;;;;;;4.72;100.00;102719.56;6214070;23;20332;-80
2022/12/01 03:58:12;;;;;;;;;;;;;;;4.71;100.00;102722.97;6214802;23;19944;-79
2022/12/01 04:00:42;;;;;;;;;;;;;;;4.71;100.00;102728.13;6215794;23;19912;-79
2022/12/01 04:03:18;;;;;;;;;;;;;;;4.69;100.00;102717.75;6215405;23;19919;-80
2022/12/01 04:05:43;;;;;;;;;;;;;;;4.71;100.00;102728.13;6215839;23;19955;-80
2022/12/01 04:08:14;;;;;;;;;;;;;;;4.69;100.00;102722.91;6214066;23;19916;-80
2022/12/01 04:10:39;;;;;;;;;;;;;;;4.68;100.00;102728.91;6215088;23;19916;-80
2022/12/01 04:13:05;;;;;;;;;;;;;;;4.69;100.00;102727.22;6214947;23;19912;-80
2022/12/01 04:15:45;;;;;;;;;;;;;;;4.70;100.00;102726.38;6213798;23;19912;-79
2022/12/01 04:18:10;;;;;;;;;;;;;;;4.70;100.00;102732.41;6215083;23;19915;-79
2022/12/01 04:20:57;;;;;;;;;;;;;;;4.69;100.00;102725.50;6214865;23;20288;-79
2022/12/01 04:26:06;;;;;;;;;;;;;;;4.70;100.00;102724.66;6214782;23;20239;-79
2022/12/01 04:28:40;;;;;;;;;;;;;;;4.71;100.00;102728.13;6216284;23;19912;-79
2022/12/01 04:31:20;;;;;;;;;;;;;;;4.71;100.00;102728.13;6214979;23;19919;-79
2022/12/01 04:33:46;;;;;;;;;;;;;;;4.70;100.00;102726.38;6215730;23;20363;-79
2022/12/01 04:36:24;;;;;;;;;;;;;;;4.70;100.00;102727.25;6214116;23;19916;-80
2022/12/01 04:39:05;;;;;;;;;;;;;;;4.73;100.00;102723.00;6214244;23;19982;-79
2022/12/01 04:41:30;;;;;;;;;;;;;;;4.72;100.00;102724.72;6215586;23;19966;-79
2022/12/01 04:44:09;;;;;;;;;;;;;;;4.72;100.00;102727.31;6214728;23;20286;-79
2022/12/01 04:46:35;;;;;;;;;;;;;;;4.72;100.00;102729.88;6215634;23;19935;-79
2022/12/01 04:49:13;;;;;;;;;;;;;;;4.71;100.00;102720.41;6214856;23;20228;-79
2022/12/01 04:51:46;;;;;;;;;;;;;;;4.70;100.00;102719.50;6213225;23;20287;-79
2022/12/01 04:54:17;;;;;;;;;;;;;;;4.69;100.00;102724.63;6215285;23;20320;-79
2022/12/01 04:56:52;;;;;;;;;;;;;;;4.68;100.00;102731.50;6215537;23;19912;-79
2022/12/01 04:59:43;;;;;;;;;;;;;;;4.68;100.00;102728.03;6214110;23;19916;-79
2022/12/01 05:02:17;;;;;;;;;;;;;;;4.69;100.00;102724.63;6210576;23;19912;-79
2022/12/01 05:04:46;;;;;;;;;;;;;;;4.67;100.00;102723.69;6214037;23;20233;-79
2022/12/01 05:07:11;;;;;;;;;;;;;;;4.67;100.00;102727.13;6210021;23;19940;-79
2022/12/01 05:09:37;;;;;;;;;;;;;;;4.68;100.00;102722.88;6215827;23;19919;-79
2022/12/01 05:12:02;;;;;;;;;;;;;;;4.66;100.00;102719.34;6214434;23;19915;-79
2022/12/01 05:14:28;;;;;;;;;;;;;;;4.67;100.00;102715.94;6215519;23;19912;-80
2022/12/01 05:16:54;;;;;;;;;;;;;;;4.66;100.00;102721.94;6214569;23;20313;-79
2022/12/01 05:22:03;;;;;;;;;;;;;;;4.67;100.00;102721.97;6214402;23;19919;-79
2022/12/01 05:24:28;;;;;;;;;;;;;;;4.66;100.00;102719.34;6215653;23;19916;-79
2022/12/01 05:26:53;;;;;;;;;;;;;;;4.65;100.00;102720.19;6217048;23;19908;-79
2022/12/01 05:29:18;;;;;;;;;;;;;;;4.65;100.00;102731.41;6217652;23;19916;-79
2022/12/01 05:31:44;;;;;;;;;;;;;;;4.65;100.00;102727.94;6216564;23;19979;-80
2022/12/01 05:34:09;;;;;;;;;;;;;;;4.65;100.00;102728.81;6216214;23;20265;-80
2022/12/01 05:36:35;;;;;;;;;;;;;;;4.66;100.00;102734.84;6217371;23;19934;-79
2022/12/01 05:39:00;;;;;;;;;;;;;;;4.64;100.00;102737.41;6217287;23;19919;-80
2022/12/01 05:41:25;;;;;;;;;;;;;;;4.65;100.00;102730.53;6216622;23;19918;-79
2022/12/01 05:43:50;;;;;;;;;;;;;;;4.65;100.00;102735.69;6216902;23;19912;-79
2022/12/01 05:46:16;;;;;;;;;;;;;;;4.65;100.00;102733.13;6216435;23;19911;-80
2022/12/01 05:48:41;;;;;;;;;;;;;;;4.64;100.00;102736.50;6217598;23;19912;-79
2022/12/01 05:51:07;;;;;;;;;;;;;;;4.64;100.00;102728.75;6216410;23;19935;-80
2022/12/01 05:53:33;;;;;;;;;;;;;;;4.64;100.00;102731.34;6216153;23;20045;-80
2022/12/01 05:55:58;;;;;;;;;;;;;;;4.64;100.00;102731.34;6216654;23;19984;-79
2022/12/01 05:58:23;;;;;;;;;;;;;;;4.63;100.00;102732.19;6217634;23;19919;-79
2022/12/01 06:00:48;;;;;;;;;;;;;;;4.63;100.00;102734.75;6216112;23;19916;-79
2022/12/01 06:03:13;;;;;;;;;;;;;;;4.63;100.00;102730.47;6216668;23;19939;-79
2022/12/01 06:05:39;;;;;;;;;;;;;;;4.63;100.00;102743.38;6216889;23;20291;-79
2022/12/01 06:08:04;;;;;;;;;;;;;;;4.63;100.00;102737.34;6215526;23;19919;-79
2022/12/01 06:10:32;;;;;;;;;;;;;;;4.64;100.00;102741.66;6265128;22;19923;-80
2022/12/01 06:13:00;;;;;;;;;;;;;;;4.56;100.00;102727.66;6277186;22;20217;-79
2022/12/01 06:15:26;;;;;;;;;;;;;;;4.62;100.00;102733.03;6277510;22;19911;-79
2022/12/01 06:17:51;;;;;;;;;;;;;;;4.62;100.00;102738.19;6277189;22;19943;-79
2022/12/01 06:20:22;;;;;;;;;;;;;;;4.62;100.00;102738.19;6277606;22;19911;-79
2022/12/01 06:23:00;;;;;;;;;;;;;;;4.63;100.00;102739.94;6275878;22;19907;-79
2022/12/01 06:25:34;;;;;;;;;;;;;;;4.62;100.00;102731.31;6277731;22;19916;-79
2022/12/01 06:28:18;;;;;;;;;;;;;;;4.60;100.00;102732.94;6277488;22;19915;-79
2022/12/01 06:30:55;;;;;;;;;;;;;;;4.60;100.00;102740.69;6277297;22;19957;-79
2022/12/01 06:33:41;;;;;;;;;;;;;;;4.60;100.00;102740.69;6277850;22;19974;-79
2022/12/01 06:36:07;;;;;;;;;;;;;;;4.59;100.00;102738.97;6275389;22;20328;-79
2022/12/01 06:38:47;;;;;;;;;;;;;;;4.60;100.00;102735.53;6277805;22;19961;-79
2022/12/01 06:41:22;;;;;;;;;;;;;;;4.60;100.00;102734.66;6278117;22;19940;-79
2022/12/01 06:43:59;;;;;;;;;;;;;;;4.60;100.00;102743.28;6275238;22;19918;-79
2022/12/01 06:46:25;;;;;;;;;;;;;;;4.59;100.00;102744.13;6277426;22;19915;-79
2022/12/01 06:49:05;;;;;;;;;;;;;;;4.59;100.00;102745.84;6277304;22;19915;-79
2022/12/01 06:51:46;;;;;;;;;;;;;;;4.58;100.00;102741.50;6277456;22;19915;-80
2022/12/01 06:54:23;;;;;;;;;;;;;;;4.57;100.00;102744.91;6275780;22;19912;-79
2022/12/01 06:56:48;;;;;;;;;;;;;;;4.60;100.00;102751.03;6276781;22;19919;-79
2022/12/01 06:59:13;;;;;;;;;;;;;;;4.57;100.00;102758.69;6277179;22;19912;-79
2022/12/01 07:01:39;;;;;;;;;;;;;;;4.59;100.00;102761.34;6277047;22;19974;-79
2022/12/01 07:04:10;;;;;;;;;;;;;;;4.60;100.00;102765.66;6276286;22;19911;-79
2022/12/01 07:06:44;;;;;;;;;;;;;;;4.60;100.00;102770.84;6277775;22;19908;-79
2022/12/01 07:09:18;;;;;;;;;;;;;;;4.60;100.00;102771.69;6276674;22;20005;-80
2022/12/01 07:11:58;;;;;;;;;;;;;;;4.59;100.00;102764.78;6275883;22;19947;-79
2022/12/01 07:14:38;;;;;;;;;;;;;;;4.60;100.00;102776.00;6276520;22;19911;-79
2022/12/01 07:17:06;;;;;;;;;;;;;;;4.61;100.00;102780.31;6277200;22;19982;-79
2022/12/01 07:20:19;;;;;;;;;;;;;;;4.71;100.00;102774.66;6276890;22;19912;-79
2022/12/01 07:22:49;;;;;;;;;;;;;;;4.62;100.00;102775.22;6123972;23;19929;-79
2022/12/01 07:25:39;;;;;;;;;;;;;;;4.63;100.00;102782.13;6123668;23;19913;-79
2022/12/01 07:28:04;;;;;;;;;;;;;;;4.63;100.00;102783.84;6274536;22;20003;-79
2022/12/01 07:30:29;;;;;;;;;;;;;;;4.63;100.00;102779.56;6276082;22;19915;-80
2022/12/01 07:32:54;;;;;;;;;;;;;;;4.64;100.00;102789.09;6276250;22;20339;-79
2022/12/01 07:35:20;;;;;;;;;;;;;;;4.64;100.00;102793.34;6277097;22;19912;-79
2022/12/01 07:37:45;;;;;;;;;;;;;;;4.64;100.00;102789.09;6277105;22;19911;-79
2022/12/01 07:40:11;;;;;;;;;;;;;;;4.65;100.00;102784.78;6274972;22;19912;-79
2022/12/01 07:42:39;;;;;;;;;;;;;;;4.69;100.00;102786.63;6277372;22;19912;-79
2022/12/01 07:45:05;;;;;;;;;;;;;;;4.69;100.00;102789.22;6277010;22;19957;-79
2022/12/01 07:47:30;;;;;;;;;;;;;;;4.69;100.00;102787.50;6275210;22;19915;-79
2022/12/01 07:49:55;;;;;;;;;;;;;;;4.73;100.00;102790.19;6276499;22;20272;-79
2022/12/01 07:52:20;;;;;;;;;;;;;;;4.72;100.00;102791.91;6277144;22;19911;-79
2022/12/01 07:54:45;;;;;;;;;;;;;;;4.72;100.00;102791.91;6275282;22;19911;-79
2022/12/01 07:57:13;;;;;;;;;;;;;;;4.75;100.00;102804.03;6275123;22;20703;-79
2022/12/01 07:59:38;;;;;;;;;;;;;;;4.74;100.00;102800.59;6276471;22;19911;-79
2022/12/01 08:02:03;;;;;;;;;;;;;;;4.78;100.00;102798.97;6274931;22;19915;-79
2022/12/01 08:04:29;;;;;;;;;;;;;;;4.78;100.00;102792.09;6275752;22;19911;-79
2022/12/01 08:06:56;;;;;;;;;;;;;;;4.78;100.00;102802.44;6275845;22;20338;-79
2022/12/01 08:09:22;;;;;;;;;;;;;;;4.82;100.00;102803.41;6276247;22;19915;-79
2022/12/01 08:11:47;;;;;;;;;;;;;;;4.84;100.00;102818.13;6277058;22;19938;-79
2022/12/01 08:14:13;;;;;;;;;;;;;;;4.88;100.00;102808.78;6273845;22;19907;-79
2022/12/01 08:16:38;;;;;;;;;;;;;;;4.90;100.00;102810.59;6275970;22;19917;-79
2022/12/01 08:19:03;;;;;;;;;;;;;;;4.93;100.00;102809.78;6276848;22;19923;-79
2022/12/01 08:21:28;;;;;;;;;;;;;;;4.96;100.00;102817.63;6275475;22;19994;-79
2022/12/01 08:23:55;;;;;;;;;;;;;;;5.01;100.00;102821.25;6275507;22;19911;-79
2022/12/01 08:26:21;;;;;;;;;;;;;;;4.98;100.00;102812.53;6276269;22;19915;-79
2022/12/01 08:28:46;;;;;;;;;;;;;;;5.01;100.00;102817.78;6276133;22;19918;-79
2022/12/01 08:31:14;;;;;;;;;;;;;;;5.00;100.00;102819.47;6276328;22;19915;-79
2022/12/01 08:33:39;;;;;;;;;;;;;;;5.05;100.00;102824.81;6275866;22;19916;-80
2022/12/01 08:36:04;;;;;;;;;;;;;;;5.04;100.00;102823.06;6275092;22;20029;-79
2022/12/01 08:38:30;;;;;;;;;;;;;;;5.05;100.00;102825.66;6276002;22;19915;-79
2022/12/01 08:40:58;;;;;;;;;;;;;;;5.08;100.00;102820.59;6275516;22;19918;-79
2022/12/01 08:43:23;;;;;;;;;;;;;;;5.10;100.00;102826.72;6275713;22;19911;-80
2022/12/01 08:45:49;;;;;;;;;;;;;;;5.13;100.00;102816.47;6275207;22;20243;-79
2022/12/01 08:48:14;;;;;;;;;;;;;;;5.15;100.00;102824.25;6275844;22;20331;-79
2022/12/01 08:50:39;;;;;;;;;;;;;;;5.16;100.00;102832.03;6275416;22;19957;-79
2022/12/01 08:53:04;;;;;;;;;;;;;;;5.18;100.00;102833.81;6274864;22;19911;-79
2022/12/01 08:55:29;;;;;;;;;;;;;;;5.21;100.00;102829.59;6275806;22;19915;-79
2022/12/01 08:57:54;;;;;;;;;;;;;;;5.26;100.00;102824.56;6274913;22;20005;-80
2022/12/01 09:00:20;;;;;;;;;;;;;;;5.29;100.00;102817.78;6276026;22;19959;-79
2022/12/01 10:20:58;;;;;;;;;;;;;;;6.30;100.00;102811.97;6212840;23;19927;-82
2022/12/01 10:23:43;;;;;;;;;;;;;;;6.30;100.00;102812.84;6216615;23;19990;-82
2022/12/01 10:26:27;;;;;;;;;;;;;;;6.32;100.00;102812.91;6216337;23;19975;-82
2022/12/01 10:29:03;;;;;;;;;;;;;;;6.35;100.00;102812.09;6216409;23;20390;-82
2022/12/01 10:31:28;;;;;;;;;;;;;;;6.39;100.00;102809.63;6216924;23;20359;-82
2022/12/01 10:33:57;;;;;;;;;;;;;;;6.43;100.00;102807.97;6215916;23;19912;-82
2022/12/01 12:22:21;;;;;;;;;;;;;;;7.09;100.00;102737.78;6222661;22;19942;-82
2022/12/01 12:25:09;;;;;;;;;;;;;;;7.02;100.00;102736.78;6215060;23;19923;-82
2022/12/01 12:27:53;;;;;;;;;;;;;;;7.01;100.00;102735.03;6214781;23;19954;-82
2022/12/01 12:30:26;;;;;;;;;;;;;;;7.02;100.00;102735.91;6213619;23;21420;-81
2022/12/01 12:33:16;;;;;;;;;;;;;;;7.05;100.00;102733.38;6213445;23;19912;-81
2022/12/01 12:36:00;;;;;;;;;;;;;;;7.03;100.00;102729.91;6213589;23;20324;-81
2022/12/01 12:38:40;;;;;;;;;;;;;;;6.96;100.00;102731.47;6215414;23;19944;-81
2022/12/01 12:41:05;;;;;;;;;;;;;;;6.93;100.00;102733.13;6215347;23;19946;-81
2022/12/01 12:43:50;;;;;;;;;;;;;;;6.91;100.00;102729.63;6214775;23;19912;-81
2022/12/01 12:46:21;;;;;;;;;;;;;;;6.85;100.00;102727.78;6216112;23;19912;-81
2022/12/01 12:48:59;;;;;;;;;;;;;;;6.89;100.00;102719.22;6214934;23;19916;-82
2022/12/01 12:51:33;;;;;;;;;;;;;;;6.87;100.00;102713.13;6215490;23;19916;-81
2022/12/01 12:54:03;;;;;;;;;;;;;;;6.96;100.00;102717.63;6216051;23;19994;-81
2022/12/01 12:56:29;;;;;;;;;;;;;;;6.97;100.00;102714.22;6213297;23;20259;-81
2022/12/01 12:58:57;;;;;;;;;;;;;;;6.90;100.00;102705.44;6216056;23;19923;-81
2022/12/01 13:01:25;;;;;;;;;;;;;;;6.91;100.00;102708.88;6211063;23;19966;-81
2022/12/01 13:03:56;;;;;;;;;;;;;;;6.90;100.00;102717.50;6212531;23;19912;-81
2022/12/01 13:06:26;;;;;;;;;;;;;;;6.97;100.00;102716.81;6213452;23;19912;-81
2022/12/01 13:08:54;;;;;;;;;;;;;;;7.04;100.00;102721.28;6215135;23;19946;-81
2022/12/01 13:11:20;;;;;;;;;;;;;;;7.03;100.00;102716.94;6214016;23;20386;-81
2022/12/01 13:13:48;;;;;;;;;;;;;;;7.01;100.00;102708.25;6213054;23;19916;-80
2022/12/01 13:16:18;;;;;;;;;;;;;;;7.00;100.00;102706.50;6215574;23;20352;-81
2022/12/01 13:18:46;;;;;;;;;;;;;;;6.99;100.00;102705.59;6213865;23;20395;-81
2022/12/01 13:21:14;;;;;;;;;;;;;;;7.00;100.00;102699.59;6213349;23;19970;-80
2022/12/01 13:23:40;;;;;;;;;;;;;;;7.02;100.00;102699.59;6213329;23;19916;-79
2022/12/01 13:26:07;;;;;;;;;;;;;;;7.00;100.00;102699.59;6214022;23;19916;-81
2022/12/01 13:28:39;;;;;;;;;;;;;;;6.99;100.00;102696.94;6215501;23;19935;-80
2022/12/01 13:31:07;;;;;;;;;;;;;;;6.98;100.00;102697.78;6214918;23;19943;-81
2022/12/01 13:33:32;;;;;;;;;;;;;;;7.00;100.00;102690.94;6215470;23;19912;-80
2022/12/01 13:35:58;;;;;;;;;;;;;;;7.03;100.00;102683.22;6215868;23;19938;-81
2022/12/01 13:38:23;;;;;;;;;;;;;;;7.08;100.00;102686.75;6214701;23;19994;-80
2022/12/01 13:41:08;;;;;;;;;;;;;;;6.97;100.00;102688.28;6215767;23;19959;-81
2022/12/01 13:43:34;;;;;;;;;;;;;;;6.88;100.00;102685.50;6213644;23;20308;-81
2022/12/01 13:46:01;;;;;;;;;;;;;;;6.82;100.00;102688.81;6215813;23;20355;-81
2022/12/01 13:48:35;;;;;;;;;;;;;;;6.76;100.00;102686.97;6216992;23;19912;-81
2022/12/01 13:51:01;;;;;;;;;;;;;;;6.68;100.00;102683.34;6216760;23;20283;-81
2022/12/01 14:30:25;;;;;;;;;;;;;;;6.01;100.00;102686.94;6213301;23;19966;-79
2022/12/01 14:32:50;;;;;;;;;;;;;;;6.01;100.00;102694.69;6214806;23;19946;-79
2022/12/01 14:35:16;;;;;;;;;;;;;;;5.97;100.00;102690.28;6215737;23;20311;-81
2022/12/01 14:37:43;;;;;;;;;;;;;;;5.95;100.00;102690.25;6215341;23;19916;-79
2022/12/01 14:40:14;;;;;;;;;;;;;;;5.97;100.00;102696.34;6216065;23;19912;-80
2022/12/01 14:45:29;;;;;;;;;;;;;;;5.90;100.00;102694.41;6216201;23;20309;-79
2022/12/01 14:47:58;;;;;;;;;;;;;;;5.91;100.00;102687.50;6216294;23;19935;-80
2022/12/01 14:50:28;;;;;;;;;;;;;;;5.87;100.00;102692.59;6215187;23;19947;-79
2022/12/01 14:52:56;;;;;;;;;;;;;;;5.87;100.00;102690.00;6216297;23;19912;-79
2022/12/01 14:55:29;;;;;;;;;;;;;;;5.87;100.00;102689.16;6215764;23;19944;-79
2022/12/01 14:58:03;;;;;;;;;;;;;;;5.83;100.00;102689.91;6215016;23;19912;-79
2022/12/01 15:00:29;;;;;;;;;;;;;;;5.80;100.00;102682.06;6216878;23;19911;-79
2022/12/01 15:02:56;;;;;;;;;;;;;;;5.78;100.00;102684.59;6215961;23;20339;-79
2022/12/01 15:05:23;;;;;;;;;;;;;;;5.73;100.00;102675.84;6216083;23;19916;-80
2022/12/01 15:07:50;;;;;;;;;;;;;;;5.71;100.00;102680.09;6215666;23;20227;-80
2022/12/01 15:10:15;;;;;;;;;;;;;;;5.70;100.00;102683.53;6215001;23;20366;-79
2022/12/01 15:12:40;;;;;;;;;;;;;;;5.72;100.00;102676.69;6215282;23;20455;-80
2022/12/01 15:15:13;;;;;;;;;;;;;;;5.67;100.00;102680.00;6215274;23;19912;-80
2022/12/01 15:17:38;;;;;;;;;;;;;;;5.62;100.00;102685.94;6213690;23;20244;-79
2022/12/01 15:20:23;;;;;;;;;;;;;;;5.61;100.00;102683.28;6215680;23;19919;-79
2022/12/01 15:22:49;;;;;;;;;;;;;;;5.58;100.00;102689.25;6215012;23;19912;-80
2022/12/01 15:25:15;;;;;;;;;;;;;;;5.59;100.00;102693.63;6214501;23;19985;-79
2022/12/01 15:27:42;;;;;;;;;;;;;;;5.56;100.00;102700.44;6215467;23;19912;-80
2022/12/01 15:30:11;;;;;;;;;;;;;;;5.54;100.00;102700.38;6212495;23;19943;-79
2022/12/01 15:32:37;;;;;;;;;;;;;;;5.52;100.00;102701.16;6214881;23;19912;-80
2022/12/01 15:35:04;;;;;;;;;;;;;;;5.50;100.00;102708.00;6214540;23;19914;-80
2022/12/01 15:37:39;;;;;;;;;;;;;;;5.48;100.00;102701.91;6214653;23;20312;-79
2022/12/01 15:40:06;;;;;;;;;;;;;;;5.47;100.00;102700.16;6215253;23;20355;-80
2022/12/01 15:42:37;;;;;;;;;;;;;;;5.45;100.00;102709.59;6213688;23;19916;-80
2022/12/01 15:45:14;;;;;;;;;;;;;;;5.44;100.00;102711.31;6215072;23;20025;-79
2022/12/01 15:47:43;;;;;;;;;;;;;;;5.43;100.00;102706.97;6215046;23;19919;-79
2022/12/01 15:50:28;;;;;;;;;;;;;;;5.41;100.00;102703.47;6215427;23;19912;-79
2022/12/01 15:52:54;;;;;;;;;;;;;;;5.38;100.00;102709.41;6213280;23;19920;-79
2022/12/01 15:55:23;;;;;;;;;;;;;;;5.40;100.00;102712.06;6214917;23;19953;-79
2022/12/01 15:57:48;;;;;;;;;;;;;;;5.39;100.00;102703.44;6215580;23;19935;-80
2022/12/01 16:00:17;;;;;;;;;;;;;;;5.34;100.00;102707.59;6214580;23;20312;-79
2022/12/01 16:02:43;;;;;;;;;;;;;;;5.33;100.00;102705.84;6215823;23;19908;-80
2022/12/01 16:05:11;;;;;;;;;;;;;;;5.31;100.00;102704.91;6216143;23;19997;-80
2022/12/01 16:07:36;;;;;;;;;;;;;;;5.31;100.00;102706.63;6214729;23;19915;-80
2022/12/01 16:10:03;;;;;;;;;;;;;;;5.29;100.00;102706.56;6213759;23;20267;-80
2022/12/01 16:12:37;;;;;;;;;;;;;;;5.28;100.00;102704.81;6215515;23;19919;-79
2022/12/01 16:15:12;;;;;;;;;;;;;;;5.28;100.00;102706.53;6213855;23;19912;-80
2022/12/01 16:17:45;;;;;;;;;;;;;;;5.25;100.00;102707.31;6212608;23;19923;-80
2022/12/01 16:20:22;;;;;;;;;;;;;;;5.23;100.00;102702.94;6215769;23;19919;-80
2022/12/01 16:22:50;;;;;;;;;;;;;;;5.23;100.00;102708.09;6213703;23;19919;-79
2022/12/01 16:25:16;;;;;;;;;;;;;;;5.18;100.00;102707.97;6215952;23;19912;-81
2022/12/01 16:27:48;;;;;;;;;;;;;;;5.14;100.00;102704.44;6214787;23;20042;-83
2022/12/01 16:30:21;;;;;;;;;;;;;;;5.13;100.00;102718.22;6214298;23;19919;-80
2022/12/01 16:32:48;;;;;;;;;;;;;;;5.14;100.00;102719.06;6214086;23;19916;-81
2022/12/01 16:35:23;;;;;;;;;;;;;;;5.16;100.00;102717.41;6214077;23;20323;-81
2022/12/01 16:37:48;;;;;;;;;;;;;;;5.15;100.00;102726.00;6213362;23;19918;-81
2022/12/01 16:40:15;;;;;;;;;;;;;;;5.16;100.00;102722.56;6215387;23;19943;-79
2022/12/01 16:42:40;;;;;;;;;;;;;;;5.16;100.00;102714.81;6214527;23;19939;-81
2022/12/01 16:45:06;;;;;;;;;;;;;;;5.18;100.00;102720.91;6214496;23;19912;-81
2022/12/01 16:47:32;;;;;;;;;;;;;;;5.16;100.00;102725.16;6214798;23;19923;-81